Time;durP1;ratioP1;P1;durP2;ratioP2;P2;SDS_P1;SDS_P2;PMS_P1;PMS_P2;Temp;Humidity;BMP_temperature;BMP_pressure;BME280_temperature;BME280_humidity;BME280_pressure;Samples;Min_cycle;Max_cycle;Signal;HPM_P1;HPM_P2
2023/03/17 00:02:08;;;;;;;47.50;42.10;;;;;;;-3.37;76.37;98588.88;109598;1273;22253;-92
2023/03/17 00:04:37;;;;;;;50.00;44.60;;;;;;;-3.34;76.20;98585.20;109580;1295;22120;-91
2023/03/17 00:07:05;;;;;;;48.50;43.40;;;;;;;-3.40;76.02;98584.10;109584;1295;21992;-92
2023/03/17 00:09:33;;;;;;;51.00;44.10;;;;;;;-3.51;76.07;98585.92;109585;1295;22181;-89
2023/03/17 00:12:01;;;;;;;53.50;47.50;;;;;;;-3.63;76.12;98586.36;109566;1295;22119;-85
2023/03/17 00:14:29;;;;;;;54.00;40.50;;;;;;;-3.70;76.10;98589.30;109580;1295;22022;-91
2023/03/17 00:16:57;;;;;;;46.50;39.60;;;;;;;-3.70;76.60;98589.83;109570;1295;22271;-89
2023/03/17 00:19:32;;;;;;;49.80;44.40;;;;;;;-3.66;77.14;98583.17;109536;1295;22238;-93
2023/03/17 00:22:01;;;;;;;51.90;46.30;;;;;;;-3.61;77.58;98584.67;109560;1292;22121;-92
2023/03/17 00:24:29;;;;;;;53.30;47.10;;;;;;;-3.58;77.82;98591.06;109566;1295;22113;-88
2023/03/17 00:26:58;;;;;;;51.70;44.90;;;;;;;-3.57;78.04;98592.45;109563;1295;22148;-88
2023/03/17 00:29:26;;;;;;;55.60;42.70;;;;;;;-3.57;78.29;98588.42;109733;1295;22902;-91
2023/03/17 00:31:56;;;;;;;46.10;41.20;;;;;;;-3.56;78.16;98581.40;109717;1295;22924;-91
2023/03/17 00:34:24;;;;;;;54.20;46.10;;;;;;;-3.54;77.99;98581.23;109581;1295;22210;-90
2023/03/17 00:37:00;;;;;;;54.30;48.50;;;;;;;-3.59;77.69;98575.90;109540;1273;22956;31
2023/03/17 00:39:28;;;;;;;53.50;44.40;;;;;;;-3.68;77.76;98576.89;109658;1276;22162;-89
2023/03/17 00:42:03;;;;;;;47.20;41.50;;;;;;;-3.76;77.63;98576.92;109372;1272;22881;31
2023/03/17 00:44:33;;;;;;;49.40;39.60;;;;;;;-3.82;77.85;98580.85;109626;1273;22134;-86
2023/03/17 00:47:01;;;;;;;49.50;41.70;;;;;;;-3.84;78.38;98577.31;109774;1295;22480;-93
2023/03/17 00:49:29;;;;;;;51.70;43.90;;;;;;;-3.87;78.33;98574.70;109551;1274;22141;-93
2023/03/17 00:51:57;;;;;;;52.30;45.70;;;;;;;-3.95;78.57;98570.83;109627;1295;22183;-91
2023/03/17 00:54:25;;;;;;;54.00;47.70;;;;;;;-4.05;78.38;98568.54;109636;1295;22200;-93
2023/03/17 00:56:53;;;;;;;51.00;42.00;;;;;;;-4.18;77.61;98570.27;109570;1295;22982;-93
2023/03/17 00:59:34;;;;;;;49.30;39.90;;;;;;;-4.24;77.09;98566.17;109580;1295;22244;-92
2023/03/17 01:02:02;;;;;;;50.30;39.40;;;;;;;-4.21;77.50;98568.05;109563;1295;22252;-89
2023/03/17 01:04:31;;;;;;;46.70;40.30;;;;;;;-4.13;78.52;98565.63;109490;1295;22258;-91
2023/03/17 01:06:59;;;;;;;50.10;42.40;;;;;;;-4.03;80.16;98574.06;109542;1295;22119;-91
2023/03/17 01:09:29;;;;;;;53.20;42.40;;;;;;;-4.00;79.84;98577.57;109533;1295;23051;-91
2023/03/17 01:11:57;;;;;;;55.10;41.20;;;;;;;-3.96;79.50;98573.44;109741;1295;22596;-91
2023/03/17 01:14:25;;;;;;;48.80;39.00;;;;;;;-3.93;79.15;98567.68;109562;1295;22231;-91
2023/03/17 01:16:53;;;;;;;42.60;34.90;;;;;;;-3.91;78.69;98564.38;109307;1295;22203;-92
2023/03/17 01:19:22;;;;;;;41.00;34.50;;;;;;;-3.91;78.10;98559.40;109566;1295;22139;-91
2023/03/17 01:21:57;;;;;;;46.40;39.00;;;;;;;-3.85;78.20;98561.88;109633;1270;22128;-85
2023/03/17 01:24:26;;;;;;;45.10;39.00;;;;;;;-3.92;78.09;98557.11;109552;1295;21951;-86
2023/03/17 01:26:54;;;;;;;49.90;38.60;;;;;;;-3.94;78.33;98558.55;109570;1295;22264;-90
2023/03/17 01:29:22;;;;;;;43.10;36.00;;;;;;;-3.94;78.16;98556.00;109517;1276;22492;-91
2023/03/17 01:31:50;;;;;;;41.20;36.50;;;;;;;-3.93;77.89;98555.81;109347;1295;22268;-90
2023/03/17 01:34:18;;;;;;;40.30;34.40;;;;;;;-3.91;77.93;98551.21;109480;1295;22173;-90
2023/03/17 01:36:47;;;;;;;43.00;34.20;;;;;;;-3.90;78.00;98549.11;109376;1292;22295;-92
2023/03/17 01:39:15;;;;;;;41.20;34.00;;;;;;;-3.90;78.13;98552.27;109306;1295;23004;-88
2023/03/17 01:41:44;;;;;;;41.80;35.20;;;;;;;-3.89;78.42;98546.23;109275;1295;22324;-93
2023/03/17 01:44:17;;;;;;;43.00;36.40;;;;;;;-3.92;78.38;98552.98;109404;1295;22260;-91
2023/03/17 01:46:46;;;;;;;39.70;35.10;;;;;;;-3.93;77.75;98549.36;109286;1291;22419;-89
2023/03/17 01:49:21;;;;;;;64.70;57.70;;;;;;;-3.92;77.68;98556.78;109233;1279;22213;-91
2023/03/17 01:52:06;;;;;;;63.70;56.40;;;;;;;-3.98;77.38;98562.38;109135;1295;22879;-90
2023/03/17 01:54:34;;;;;;;;;;;;;;;-4.06;77.15;98561.16;109171;1295;22269;-91
2023/03/17 01:57:15;;;;;;;84.80;68.50;;;;;;;-4.12;77.12;98554.30;109127;1295;22269;-91
2023/03/17 01:59:49;;;;;;;78.10;64.30;;;;;;;-4.14;77.13;98550.15;109204;1295;22236;-91
2023/03/17 02:02:29;;;;;;;74.60;61.50;;;;;;;-4.12;77.07;98551.83;109209;1295;22059;-92
2023/03/17 02:04:58;;;;;;;67.30;58.20;;;;;;;-4.11;77.81;98549.09;109216;1295;22307;-88
2023/03/17 02:07:28;;;;;;;66.80;59.50;;;;;;;-4.16;78.57;98546.00;109141;1295;22253;-91
2023/03/17 02:09:57;;;;;;;60.30;52.30;;;;;;;-4.21;78.68;98543.45;109141;1295;22172;-90
2023/03/17 02:12:28;;;;;;;52.10;46.50;;;;;;;-4.27;78.19;98545.82;109128;1295;22268;-88
2023/03/17 02:14:57;;;;;;;65.50;57.10;;;;;;;-4.35;77.87;98550.27;109028;1295;22280;-90
2023/03/17 02:17:27;;;;;;;63.40;52.00;;;;;;;-4.36;77.80;98553.05;109223;1295;22282;-87
2023/03/17 02:19:55;;;;;;;54.70;48.90;;;;;;;-4.37;77.40;98552.48;109465;1295;22954;-88
2023/03/17 02:22:24;;;;;;;56.80;50.10;;;;;;;-4.41;77.61;98545.89;109037;1295;22231;-91
2023/03/17 02:24:55;;;;;;;59.70;53.20;;;;;;;-4.45;77.39;98546.41;109118;1295;22208;-90
2023/03/17 02:27:34;;;;;;;55.10;48.70;;;;;;;-4.45;77.25;98550.85;109116;1295;22207;-90
2023/03/17 02:30:05;;;;;;;57.70;50.90;;;;;;;-4.42;77.29;98545.70;109289;1295;22221;-92
2023/03/17 02:32:34;;;;;;;60.90;54.50;;;;;;;-4.37;77.42;98536.86;109188;1295;22212;-91
2023/03/17 02:35:04;;;;;;;63.60;54.20;;;;;;;-4.31;77.49;98534.41;109399;1295;22160;-91
2023/03/17 02:37:32;;;;;;;55.70;49.90;;;;;;;-4.36;77.57;98528.85;109365;1295;22329;-92
2023/03/17 02:40:01;;;;;;;56.10;50.10;;;;;;;-4.40;77.57;98522.63;109070;1295;22118;-90
2023/03/17 02:42:29;;;;;;;47.80;42.80;;;;;;;-4.33;77.98;98526.93;109269;1295;22156;-91
2023/03/17 02:44:59;;;;;;;43.20;38.50;;;;;;;-4.20;78.54;98523.10;109110;1295;22227;-92
2023/03/17 02:47:27;;;;;;;42.40;37.80;;;;;;;-4.02;78.51;98520.05;109055;1295;22219;-91
2023/03/17 02:49:55;;;;;;;41.80;36.90;;;;;;;-3.87;78.21;98513.09;109267;1292;22323;-89
2023/03/17 02:52:24;;;;;;;40.20;34.80;;;;;;;-3.70;78.11;98507.50;109143;1295;22195;-91
2023/03/17 02:54:52;;;;;;;41.30;31.80;;;;;;;-3.52;78.26;98505.88;109135;1295;22221;-89
2023/03/17 02:57:20;;;;;;;36.80;30.60;;;;;;;-3.33;78.37;98510.73;109128;1295;22229;-91
2023/03/17 02:59:49;;;;;;;38.00;31.40;;;;;;;-3.18;78.35;98509.35;109192;1295;22143;-90
2023/03/17 03:02:17;;;;;;;40.40;31.50;;;;;;;-3.05;78.56;98508.20;109096;1295;22284;-91
2023/03/17 03:04:45;;;;;;;35.10;31.00;;;;;;;-2.92;78.52;98505.57;109078;1295;22166;-87
2023/03/17 03:07:13;;;;;;;41.20;33.30;;;;;;;-2.85;78.20;98498.58;109041;1295;22165;-90
2023/03/17 03:09:41;;;;;;;38.90;34.30;;;;;;;-2.76;78.42;98505.95;109046;1295;23012;-90
2023/03/17 03:12:10;;;;;;;38.50;31.90;;;;;;;-2.70;78.34;98507.14;109062;1295;22146;-88
2023/03/17 03:14:38;;;;;;;40.60;31.70;;;;;;;-2.63;78.15;98513.91;109054;1295;22204;-91
2023/03/17 03:17:07;;;;;;;34.70;28.40;;;;;;;-2.54;78.13;98514.83;109147;1295;22238;-90
2023/03/17 03:19:35;;;;;;;34.20;28.60;;;;;;;-2.43;78.09;98505.02;109086;1295;22331;-89
2023/03/17 03:22:04;;;;;;;36.80;32.40;;;;;;;-2.35;78.23;98494.29;109142;1295;22216;-91
2023/03/17 03:24:32;;;;;;;31.90;28.00;;;;;;;-2.30;78.23;98493.52;109119;1295;22311;-91
2023/03/17 03:27:00;;;;;;;32.30;28.40;;;;;;;-2.26;78.04;98485.15;109167;1295;23033;-92
2023/03/17 03:29:28;;;;;;;29.80;26.20;;;;;;;-2.21;78.17;98488.54;109127;1295;22152;-88
2023/03/17 03:31:56;;;;;;;33.10;28.20;;;;;;;-2.19;77.95;98495.11;109119;1295;22216;-90
2023/03/17 03:34:24;;;;;;;32.00;28.30;;;;;;;-2.17;77.88;98499.79;109080;1295;22208;-91
2023/03/17 03:36:52;;;;;;;33.90;30.20;;;;;;;-2.18;77.51;98505.46;109083;1295;22144;-90
2023/03/17 03:39:20;;;;;;;31.40;27.90;;;;;;;-2.20;77.55;98513.02;109081;1295;22237;-91
2023/03/17 03:41:48;;;;;;;31.10;27.90;;;;;;;-2.22;77.51;98513.67;109210;1296;22132;-90
2023/03/17 03:44:16;;;;;;;31.60;26.20;;;;;;;-2.24;77.43;98512.98;109052;1295;22740;-91
2023/03/17 03:46:45;;;;;;;31.60;28.10;;;;;;;-2.23;77.27;98509.25;109071;1296;22229;-89
2023/03/17 03:49:13;;;;;;;33.60;27.40;;;;;;;-2.20;77.32;98509.73;109075;1295;22218;-91
2023/03/17 03:51:41;;;;;;;32.90;29.40;;;;;;;-2.15;77.49;98506.25;109066;1295;22217;-88
2023/03/17 03:54:09;;;;;;;32.20;28.40;;;;;;;-2.11;77.52;98502.73;109060;1295;22164;-90
2023/03/17 03:56:37;;;;;;;30.20;26.60;;;;;;;-2.10;77.38;98497.76;109056;1295;22201;-90
2023/03/17 03:59:05;;;;;;;30.10;26.60;;;;;;;-2.07;77.42;98493.16;109060;1295;22235;-91
2023/03/17 04:01:33;;;;;;;31.60;27.80;;;;;;;-2.06;77.67;98496.39;109084;1295;22952;-90
2023/03/17 04:04:01;;;;;;;31.60;27.80;;;;;;;-2.04;77.41;98494.39;109020;1295;22219;-90
2023/03/17 04:06:29;;;;;;;78.30;33.10;;;;;;;-2.04;77.50;98497.27;109072;1295;22264;-90
2023/03/17 04:08:57;;;;;;;38.40;28.60;;;;;;;-2.01;77.44;98509.38;109075;1295;22266;-90
2023/03/17 04:11:25;;;;;;;38.10;29.30;;;;;;;-1.99;77.52;98506.79;109135;1272;22202;-90
2023/03/17 04:13:53;;;;;;;31.50;27.40;;;;;;;-1.94;77.17;98509.18;109111;1295;22207;-90
2023/03/17 04:16:21;;;;;;;32.50;29.00;;;;;;;-1.90;77.16;98512.59;109103;1295;22326;-90
2023/03/17 04:18:50;;;;;;;34.90;27.90;;;;;;;-1.86;77.41;98518.36;109156;1295;21995;-86
2023/03/17 04:21:19;;;;;;;32.90;28.90;;;;;;;-1.80;77.46;98525.36;109501;1295;22080;-86
2023/03/17 04:23:47;;;;;;;37.40;33.40;;;;;;;-1.76;77.52;98520.38;109454;1295;22222;-91
2023/03/17 04:26:17;;;;;;;36.00;32.20;;;;;;;-1.73;77.34;98521.17;109199;1295;22291;-91
2023/03/17 04:28:45;;;;;;;36.10;31.60;;;;;;;-1.72;77.25;98521.69;109167;1295;22228;-88
2023/03/17 04:31:14;;;;;;;36.50;32.60;;;;;;;-1.72;77.05;98518.52;109220;1295;22091;-90
2023/03/17 04:33:42;;;;;;;37.70;33.80;;;;;;;-1.73;77.13;98517.84;109273;1295;22284;-91
2023/03/17 04:36:18;;;;;;;42.70;38.50;;;;;;;-1.75;77.16;98520.11;109306;1295;22179;-91
2023/03/17 04:38:46;;;;;;;40.30;31.40;;;;;;;-1.77;76.81;98520.98;109414;1295;22263;-90
2023/03/17 04:41:14;;;;;;;36.00;30.70;;;;;;;-1.78;76.81;98516.70;109167;1295;22141;-91
2023/03/17 04:43:44;;;;;;;34.30;29.30;;;;;;;-1.77;76.94;98501.90;109256;1295;22941;-90
2023/03/17 04:46:12;;;;;;;36.00;31.10;;;;;;;-1.76;77.05;98491.54;109113;1295;22114;-90
2023/03/17 04:48:40;;;;;;;38.90;34.70;;;;;;;-1.72;77.20;98495.96;109311;1295;22211;-89
2023/03/17 04:51:08;;;;;;;38.30;32.20;;;;;;;-1.70;77.25;98497.71;109273;1295;22238;-88
2023/03/17 04:53:39;;;;;;;37.10;33.10;;;;;;;-1.70;77.15;98496.61;109290;1295;22199;-89
2023/03/17 04:56:07;;;;;;;35.70;32.00;;;;;;;-1.71;76.94;98499.55;109114;1289;23063;-92
2023/03/17 04:58:35;;;;;;;36.70;32.80;;;;;;;-1.72;76.99;98503.00;109230;1295;22923;-89
2023/03/17 05:01:04;;;;;;;38.80;32.20;;;;;;;-1.72;77.01;98503.69;109070;1295;22171;-90
2023/03/17 05:03:32;;;;;;;39.80;34.80;;;;;;;-1.72;76.76;98509.54;109030;1295;22222;-88
2023/03/17 05:06:01;;;;;;;42.80;36.60;;;;;;;-1.73;76.79;98510.73;108996;1295;22140;-89
2023/03/17 05:08:29;;;;;;;36.00;32.20;;;;;;;-1.73;76.59;98509.88;109087;1295;22219;-90
2023/03/17 05:10:57;;;;;;;35.50;31.50;;;;;;;-1.71;76.71;98510.64;108952;1295;22262;-88
2023/03/17 05:13:26;;;;;;;37.60;32.10;;;;;;;-1.64;76.84;98524.86;109185;1295;22283;-88
2023/03/17 05:15:55;;;;;;;38.10;33.90;;;;;;;-1.55;76.92;98527.58;108998;1295;22188;-86
2023/03/17 05:18:24;;;;;;;40.00;35.70;;;;;;;-1.49;76.64;98531.52;108956;1295;22188;-89
2023/03/17 05:20:53;;;;;;;41.10;34.70;;;;;;;-1.46;76.80;98533.14;108993;1295;22234;-90
2023/03/17 05:23:21;;;;;;;39.20;34.90;;;;;;;-1.42;76.88;98531.54;109184;1295;22208;-89
2023/03/17 05:25:49;;;;;;;40.10;35.90;;;;;;;-1.39;76.56;98531.45;109138;1295;22353;-91
2023/03/17 05:28:19;;;;;;;42.30;37.80;;;;;;;-1.37;76.63;98527.22;109024;1295;22235;-89
2023/03/17 05:30:48;;;;;;;42.20;36.80;;;;;;;-1.35;76.24;98526.42;109229;1295;22151;-87
2023/03/17 05:33:16;;;;;;;42.20;35.10;;;;;;;-1.33;76.25;98527.79;108943;1295;22250;-89
2023/03/17 05:35:45;;;;;;;40.40;35.00;;;;;;;-1.30;76.41;98532.33;109280;1289;22264;-91
2023/03/17 05:38:14;;;;;;;38.20;31.40;;;;;;;-1.24;76.16;98532.89;109021;1295;22207;-84
2023/03/17 05:40:43;;;;;;;38.50;34.30;;;;;;;-1.16;76.46;98527.50;109002;1295;22208;-86
2023/03/17 05:43:11;;;;;;;36.60;32.30;;;;;;;-1.06;76.27;98528.37;109116;1295;22242;-87
2023/03/17 05:45:40;;;;;;;37.60;33.60;;;;;;;-0.98;76.34;98530.27;109099;1295;22968;-89
2023/03/17 05:48:08;;;;;;;34.80;31.10;;;;;;;-0.92;76.24;98533.09;108937;1295;22858;-83
2023/03/17 05:50:36;;;;;;;45.50;32.50;;;;;;;-0.87;75.94;98530.67;108965;1295;22206;-82
2023/03/17 05:53:05;;;;;;;35.00;31.30;;;;;;;-0.82;75.96;98529.11;108946;1295;22228;-82
2023/03/17 05:55:33;;;;;;;35.60;31.30;;;;;;;-0.76;75.94;98536.61;108988;1295;22244;-82
2023/03/17 05:58:03;;;;;;;33.60;29.00;;;;;;;-0.71;75.92;98533.34;108944;1295;22202;-82
2023/03/17 06:00:31;;;;;;;34.10;30.40;;;;;;;-0.64;75.59;98533.06;108973;1295;22671;-83
2023/03/17 06:03:01;;;;;;;99.90;34.40;;;;;;;-0.59;75.40;98536.66;108981;1295;22890;-83
2023/03/17 06:05:29;;;;;;;37.40;30.60;;;;;;;-0.53;75.20;98536.75;108994;1295;22115;-82
2023/03/17 06:07:57;;;;;;;37.00;31.10;;;;;;;-0.47;75.04;98536.45;108960;1295;22842;-82
2023/03/17 06:10:26;;;;;;;32.10;28.70;;;;;;;-0.41;74.91;98539.33;108945;1295;22204;-82
2023/03/17 06:12:54;;;;;;;41.10;30.10;;;;;;;-0.33;75.04;98541.77;108958;1295;22851;-82
2023/03/17 06:15:22;;;;;;;38.10;28.30;;;;;;;-0.22;75.06;98540.63;108964;1295;22241;-83
2023/03/17 06:17:50;;;;;;;33.40;28.50;;;;;;;-0.09;74.87;98532.11;108961;1295;22156;-83
2023/03/17 06:20:19;;;;;;;33.90;27.90;;;;;;;0.04;74.78;98536.83;108916;1295;22341;-83
2023/03/17 06:22:47;;;;;;;33.70;29.20;;;;;;;0.15;74.66;98538.33;108988;1295;22212;-83
2023/03/17 06:25:30;;;;;;;36.00;28.00;;;;;;;0.24;74.33;98543.27;108993;1295;22202;-81
2023/03/17 06:28:01;;;;;;;39.30;27.80;;;;;;;0.31;73.69;98542.55;108985;1295;22151;-82
2023/03/17 06:30:31;;;;;;;34.80;28.90;;;;;;;0.36;73.84;98547.34;109009;1295;22887;-88
2023/03/17 06:33:02;;;;;;;31.70;28.20;;;;;;;0.44;73.96;98550.20;108735;1294;23064;-85
2023/03/17 06:35:31;;;;;;;35.00;29.40;;;;;;;0.54;74.09;98546.09;108941;1295;22219;-83
2023/03/17 06:38:01;;;;;;;37.10;28.40;;;;;;;0.63;73.28;98552.33;109007;1282;22226;-83
2023/03/17 06:40:30;;;;;;;34.50;30.80;;;;;;;0.70;73.42;98548.30;108953;1288;22171;-84
2023/03/17 06:43:00;;;;;;;37.10;30.90;;;;;;;0.79;73.48;98544.90;108949;1282;22168;-85
2023/03/17 06:45:28;;;;;;;32.80;29.40;;;;;;;0.88;72.92;98542.73;108888;1289;22187;-84
2023/03/17 06:47:56;;;;;;;37.00;30.80;;;;;;;0.96;72.69;98544.70;108886;1289;23084;-83
2023/03/17 06:50:24;;;;;;;32.80;29.30;;;;;;;1.05;72.42;98538.06;108889;1295;22316;-84
2023/03/17 06:52:52;;;;;;;33.10;29.50;;;;;;;1.11;71.76;98543.10;108939;1295;22260;-84
2023/03/17 06:55:20;;;;;;;33.10;27.90;;;;;;;1.19;71.25;98547.83;108936;1295;22242;-84
2023/03/17 06:57:48;;;;;;;31.90;28.60;;;;;;;1.25;70.70;98544.54;108932;1295;22242;-85
2023/03/17 07:00:19;;;;;;;31.40;28.00;;;;;;;1.32;70.74;98544.02;108847;1295;22245;-84
2023/03/17 07:02:48;;;;;;;30.80;26.00;;;;;;;1.39;69.96;98547.42;108930;1292;22831;-83
2023/03/17 07:05:16;;;;;;;30.70;27.00;;;;;;;1.45;70.52;98546.16;108855;1295;22983;-84
2023/03/17 07:07:45;;;;;;;31.40;27.80;;;;;;;1.54;70.14;98550.38;108955;1289;22283;-86
2023/03/17 07:10:14;;;;;;;30.90;25.40;;;;;;;1.64;70.35;98548.62;108852;1295;22180;-84
2023/03/17 07:12:43;;;;;;;30.20;26.90;;;;;;;1.73;69.97;98552.38;108979;1282;22198;-85
2023/03/17 07:15:12;;;;;;;30.40;27.30;;;;;;;1.80;69.03;98559.64;108887;1295;22131;-84
2023/03/17 07:17:40;;;;;;;32.00;27.30;;;;;;;1.86;68.81;98564.19;108934;1291;22326;-84
2023/03/17 07:20:10;;;;;;;31.50;27.00;;;;;;;1.92;68.80;98564.36;108927;1295;22232;-85
2023/03/17 07:22:39;;;;;;;29.70;25.70;;;;;;;1.99;68.77;98568.73;108921;1289;22403;-84
2023/03/17 07:25:08;;;;;;;29.50;26.40;;;;;;;2.06;68.46;98568.77;108872;1297;22881;-85
2023/03/17 07:27:36;;;;;;;30.50;27.20;;;;;;;2.04;67.86;98549.35;108862;1296;22220;-84
2023/03/17 07:30:05;;;;;;;29.00;26.00;;;;;;;2.19;67.71;98561.05;108860;1297;22218;-84
2023/03/17 07:32:35;;;;;;;32.80;26.40;;;;;;;2.27;67.15;98568.98;108918;1289;22214;-84
2023/03/17 07:35:03;;;;;;;29.40;26.30;;;;;;;2.37;68.00;98572.14;108899;1290;22247;-84
2023/03/17 07:37:31;;;;;;;32.20;28.80;;;;;;;2.47;66.62;98574.51;108954;1295;22977;-83
2023/03/17 07:39:59;;;;;;;37.50;31.30;;;;;;;2.55;66.12;98577.99;108917;1295;22218;-84
2023/03/17 07:42:28;;;;;;;33.10;29.50;;;;;;;2.62;66.34;98576.08;108917;1295;22839;-84
2023/03/17 07:44:56;;;;;;;35.40;29.90;;;;;;;2.69;66.16;98580.02;108917;1295;22236;-84
2023/03/17 07:47:25;;;;;;;33.50;29.90;;;;;;;2.79;66.27;98578.17;108937;1295;22192;-87
2023/03/17 07:49:53;;;;;;;37.20;30.50;;;;;;;2.86;66.69;98571.10;108855;1297;23242;-86
2023/03/17 07:52:21;;;;;;;33.70;30.00;;;;;;;2.97;66.34;98568.25;108834;1292;22287;-86
2023/03/17 07:54:50;;;;;;;36.20;31.30;;;;;;;3.07;66.06;98570.49;108942;1293;22202;-83
2023/03/17 07:57:19;;;;;;;35.80;31.90;;;;;;;3.16;66.28;98569.09;108929;1296;22260;-83
2023/03/17 07:59:47;;;;;;;35.50;31.30;;;;;;;3.27;66.51;98560.64;108933;1295;22411;-84
2023/03/17 08:02:17;;;;;;;38.00;34.00;;;;;;;3.39;66.15;98559.14;108929;1296;23076;-83
2023/03/17 08:04:45;;;;;;;37.30;30.50;;;;;;;3.51;65.92;98557.20;108805;1289;22206;-83
2023/03/17 08:07:14;;;;;;;36.60;31.50;;;;;;;3.59;66.19;98552.91;108947;1293;22251;-82
2023/03/17 08:09:42;;;;;;;35.80;32.10;;;;;;;3.69;65.61;98551.18;108941;1296;22200;-83
2023/03/17 08:12:10;;;;;;;30.50;27.30;;;;;;;3.77;64.46;98556.94;108935;1295;22217;-83
2023/03/17 08:14:38;;;;;;;31.60;27.30;;;;;;;3.85;65.09;98554.99;108938;1295;22174;-85
2023/03/17 08:17:06;;;;;;;34.70;28.30;;;;;;;3.95;65.22;98555.65;108951;1295;22219;-86
2023/03/17 08:19:35;;;;;;;33.60;28.00;;;;;;;4.06;64.41;98560.98;108950;1293;22912;-86
2023/03/17 08:22:03;;;;;;;32.20;28.30;;;;;;;4.15;63.61;98555.80;108929;1296;22938;-86
2023/03/17 08:24:31;;;;;;;34.10;28.90;;;;;;;4.21;64.13;98555.52;108932;1295;22280;-86
2023/03/17 08:26:59;;;;;;;31.90;28.50;;;;;;;4.34;63.42;98556.84;108928;1296;22267;-86
2023/03/17 08:29:28;;;;;;;32.10;28.70;;;;;;;4.45;63.06;98552.19;108935;1296;22378;-85
2023/03/17 08:31:56;;;;;;;28.60;25.50;;;;;;;4.56;62.36;98553.85;108957;1285;22304;-86
2023/03/17 08:34:25;;;;;;;29.50;26.50;;;;;;;4.67;62.26;98549.20;108931;1289;22293;-86
2023/03/17 08:36:53;;;;;;;32.80;28.80;;;;;;;4.80;61.79;98544.43;108909;1295;22155;-86
2023/03/17 08:39:21;;;;;;;27.10;23.80;;;;;;;4.94;62.08;98549.59;108846;1295;22234;-86
2023/03/17 08:41:49;;;;;;;27.90;24.40;;;;;;;5.08;62.29;98549.73;108956;1296;22278;-86
2023/03/17 08:44:19;;;;;;;31.50;27.90;;;;;;;5.18;61.93;98544.04;108915;1296;23122;-86
2023/03/17 08:46:49;;;;;;;28.90;25.80;;;;;;;5.30;61.74;98541.94;108910;1296;22139;-86
2023/03/17 08:49:17;;;;;;;27.40;23.70;;;;;;;5.41;59.82;98542.36;108840;1296;22877;-86
2023/03/17 08:51:45;;;;;;;27.90;23.80;;;;;;;5.51;60.03;98549.31;108861;1296;22282;-85
2023/03/17 08:54:14;;;;;;;25.10;22.40;;;;;;;5.64;60.48;98542.08;109142;1295;22226;-86
2023/03/17 08:56:42;;;;;;;24.50;21.50;;;;;;;5.74;61.55;98537.91;108954;1296;22147;-86
2023/03/17 08:59:10;;;;;;;22.90;19.90;;;;;;;5.86;59.96;98540.71;108956;1296;22200;-86
2023/03/17 09:01:39;;;;;;;21.60;18.40;;;;;;;6.00;60.16;98539.48;108936;1296;22208;-84
2023/03/17 09:04:07;;;;;;;23.70;19.30;;;;;;;6.13;59.50;98540.09;108950;1296;22594;-86
2023/03/17 09:06:36;;;;;;;21.70;19.20;;;;;;;6.27;60.60;98537.27;108939;1293;22264;-85
2023/03/17 09:09:06;;;;;;;21.40;16.00;;;;;;;6.41;59.65;98534.60;108853;1289;22927;-85
2023/03/17 09:11:34;;;;;;;17.20;14.70;;;;;;;6.52;58.04;98540.69;108933;1296;22166;-86
2023/03/17 09:14:02;;;;;;;18.60;13.40;;;;;;;6.60;56.74;98536.56;108836;1296;22249;-87
2023/03/17 09:16:32;;;;;;;15.20;13.40;;;;;;;6.72;57.97;98538.30;108931;1296;23158;-81
2023/03/17 09:19:01;;;;;;;19.10;11.20;;;;;;;6.86;57.43;98534.05;108824;1296;22245;-85
2023/03/17 09:21:28;;;;;;;16.40;11.90;;;;;;;6.95;56.90;98524.25;108922;1296;22148;-85
2023/03/17 09:23:56;;;;;;;13.40;10.60;;;;;;;7.11;57.32;98524.34;108926;1296;23003;-85
2023/03/17 09:26:28;;;;;;;13.40;9.20;;;;;;;7.27;55.09;98520.23;108926;1296;22253;-85
2023/03/17 09:28:56;;;;;;;13.70;8.90;;;;;;;7.38;53.64;98511.52;108935;1292;23077;-85
2023/03/17 09:31:25;;;;;;;14.00;8.80;;;;;;;7.46;53.62;98505.83;108808;1296;22192;-86
2023/03/17 09:33:53;;;;;;;26.20;9.70;;;;;;;7.60;54.61;98497.86;108929;1294;22222;-86
2023/03/17 09:36:22;;;;;;;14.40;8.60;;;;;;;7.69;53.25;98497.09;108954;1296;22256;-87
2023/03/17 09:38:51;;;;;;;12.00;9.00;;;;;;;7.75;52.22;98495.49;108957;1296;22213;-87
2023/03/17 09:41:29;;;;;;;13.00;9.20;;;;;;;7.83;52.26;98490.95;108972;1296;22244;-85
2023/03/17 09:44:19;;;;;;;10.30;7.50;;;;;;;7.93;50.74;98497.51;108936;1296;22221;-84
2023/03/17 09:47:07;;;;;;;11.00;8.00;;;;;;;8.03;49.68;98490.49;108944;1296;22205;-85
2023/03/17 09:49:46;;;;;;;10.30;8.20;;;;;;;8.17;51.20;98489.70;108954;1296;23024;-85
2023/03/17 09:52:17;;;;;;;13.30;9.80;;;;;;;8.32;50.48;98485.98;108866;1295;22167;-85
2023/03/17 09:54:48;;;;;;;13.30;8.90;;;;;;;8.44;50.84;98473.27;108949;1295;22950;-85
2023/03/17 09:57:23;;;;;;;11.50;9.90;;;;;;;8.58;48.90;98472.34;109000;1295;23195;-82
2023/03/17 10:00:10;;;;;;;11.00;7.70;;;;;;;8.68;47.21;98468.24;109515;1295;22129;-83
2023/03/17 10:02:40;;;;;;;11.00;8.30;;;;;;;8.78;48.88;98465.05;109485;1295;22115;-86
2023/03/17 10:05:37;;;;;;;19.40;8.70;;;;;;;8.90;46.88;98468.99;108956;1295;22277;-85
2023/03/17 10:08:15;;;;;;;11.00;8.20;;;;;;;9.01;46.31;98471.80;108940;1295;22924;-85
2023/03/17 10:11:06;;;;;;;10.10;8.80;;;;;;;9.07;45.86;98465.02;108819;1297;22159;-85
2023/03/17 10:13:39;;;;;;;10.70;7.60;;;;;;;9.20;44.65;98467.00;108825;1295;22217;-86
2023/03/17 10:16:36;;;;;;;13.40;8.70;;;;;;;9.28;44.65;98465.73;108937;1295;22131;-86
2023/03/17 10:19:28;;;;;;;9.90;8.50;;;;;;;9.40;43.29;98465.89;108967;1294;22131;-85
2023/03/17 10:22:01;;;;;;;12.70;8.40;;;;;;;9.58;43.73;98461.96;108957;1295;22215;-83
2023/03/17 10:24:32;;;;;;;11.80;8.80;;;;;;;9.67;43.04;98453.41;108693;1295;178000;-85
2023/03/17 10:27:05;;;;;;;12.30;9.50;;;;;;;9.74;41.18;98450.51;108927;1295;22234;-85
2023/03/17 10:29:33;;;;;;;14.80;10.90;;;;;;;9.86;40.93;98451.34;108963;1289;22811;-85
2023/03/17 10:32:01;;;;;;;16.20;11.40;;;;;;;9.92;40.14;98446.46;108958;1295;22233;-85
2023/03/17 10:34:32;;;;;;;17.00;12.20;;;;;;;9.95;42.48;98441.54;108919;1295;22217;-85
2023/03/17 10:37:06;;;;;;;12.50;10.90;;;;;;;10.09;42.44;98440.84;108953;1295;22655;-85
2023/03/17 10:39:47;;;;;;;13.10;11.20;;;;;;;10.20;42.63;98442.04;108975;1295;22926;-85
2023/03/17 10:42:21;;;;;;;15.00;10.90;;;;;;;10.24;39.84;98439.15;108958;1283;22999;-85
2023/03/17 10:44:49;;;;;;;13.30;10.90;;;;;;;10.19;40.91;98437.36;108856;1295;22138;-85
2023/03/17 10:47:38;;;;;;;15.00;11.70;;;;;;;10.22;39.69;98440.83;108968;1295;23067;-85
2023/03/17 10:50:21;;;;;;;15.90;12.20;;;;;;;10.24;41.22;98434.61;108840;1295;22249;-86
2023/03/17 10:52:58;;;;;;;15.40;12.00;;;;;;;10.36;41.19;98431.85;108954;1295;22138;-86
2023/03/17 10:55:50;;;;;;;13.10;11.70;;;;;;;10.44;40.53;98433.64;108822;1295;22942;-85
2023/03/17 10:58:35;;;;;;;12.40;9.90;;;;;;;10.49;40.30;98434.69;108959;1295;22305;-85
2023/03/17 11:01:18;;;;;;;13.00;10.70;;;;;;;10.52;38.97;98441.45;108956;1295;22273;-87
2023/03/17 11:03:47;;;;;;;18.20;11.80;;;;;;;10.55;38.39;98442.92;108909;1289;22273;-85
2023/03/17 11:06:19;;;;;;;18.80;10.90;;;;;;;10.64;39.83;98445.05;108944;1295;23423;-87
2023/03/17 11:08:54;;;;;;;14.90;11.20;;;;;;;10.87;39.68;98443.17;108946;1295;22950;-86
2023/03/17 11:11:28;;;;;;;13.20;10.70;;;;;;;11.06;39.65;98440.10;109005;1295;22128;-87
2023/03/17 11:14:30;;;;;;;14.50;11.10;;;;;;;11.19;39.53;98439.50;109175;1295;22148;-86
2023/03/17 11:18:04;;;;;;;16.20;11.10;;;;;;;11.26;38.68;98439.09;108918;1299;22168;-86
2023/03/17 11:21:49;;;;;;;13.30;11.90;;;;;;;11.41;40.47;98427.55;108310;1302;22177;-86
2023/03/17 11:25:18;;;;;;;16.00;12.50;;;;;;;11.60;38.39;98417.20;107626;1308;22202;-85
2023/03/17 11:28:53;;;;;;;11.20;10.00;;;;;;;11.72;37.73;98404.34;107637;1308;22329;-86
2023/03/17 11:32:24;;;;;;;19.50;10.70;;;;;;;11.84;37.90;98393.20;107641;1304;22234;-86
2023/03/17 11:35:12;;;;;;;12.40;8.40;;;;;;;11.97;37.61;98386.41;107496;1308;22273;-86